Soest, Netherlands
Current Conditions -  °F | °C
As of 6:25 PM on Saturday 20 Dec 2014 (Local Time) from EHAM Reporting Station
Scattered Clouds Scattered Clouds  
Wind Chill: 38°   Ceiling: Unl
Heat Index: 46°   Visibility: 6mi
Dew Point: 37°   Wind: 24mph
Humidity: 71%   Direction: 290°WNW
Pressure: 30.15"   Gusts: NA
Location:  52.17°N, 5.29°E
Report Text: EHAM 201725Z 29021KT 9999 FEW025CB SCT035 08/03 Q1021 TEMPO30025G35KT 7000 SHRA
Loading
Personal Weather Stations






























Interactive Weather Map New forecast layout! Learn more

10-Day Weather Forecast

Advertisements
Track Severe Weather on mobile